createdAt,value
2022-11-14T00:00:15.242Z,0.00
2022-11-14T00:01:15.238Z,0.00
2022-11-14T00:02:15.359Z,0.00
2022-11-14T00:03:15.298Z,0.00
2022-11-14T00:04:15.222Z,0.00
2022-11-14T00:05:15.264Z,0.00
2022-11-14T00:06:15.215Z,0.00
2022-11-14T00:07:15.293Z,0.00
2022-11-14T00:08:15.188Z,0.00
2022-11-14T00:09:15.190Z,0.00
2022-11-14T00:10:15.187Z,0.00
2022-11-14T00:11:15.186Z,0.00
2022-11-14T00:12:15.168Z,0.00
2022-11-14T00:13:16.186Z,0.00
2022-11-14T00:14:15.147Z,0.00
2022-11-14T00:15:15.148Z,0.00
2022-11-14T00:16:17.051Z,0.00
2022-11-14T00:17:15.124Z,0.00
2022-11-14T00:18:15.236Z,0.00
2022-11-14T00:19:15.123Z,0.00
2022-11-14T00:20:15.108Z,0.00
2022-11-14T00:21:15.529Z,0.00
2022-11-14T00:22:15.101Z,0.00
2022-11-14T00:23:15.089Z,0.00
2022-11-14T00:24:15.089Z,0.00
2022-11-14T00:25:15.079Z,0.00
2022-11-14T00:26:15.067Z,0.00
2022-11-14T00:27:15.068Z,0.00
2022-11-14T00:28:15.052Z,0.00
2022-11-14T00:29:15.056Z,0.00
2022-11-14T00:30:15.063Z,0.00
2022-11-14T00:31:15.108Z,0.00
2022-11-14T00:32:15.033Z,0.00
2022-11-14T00:33:20.050Z,0.00
2022-11-14T00:35:42.642Z,0.00
2022-11-14T00:36:41.441Z,0.00
2022-11-14T00:37:41.429Z,0.00
2022-11-14T00:38:43.056Z,0.00
2022-11-14T00:39:42.362Z,0.00
2022-11-14T00:40:41.397Z,0.00
2022-11-14T00:41:41.395Z,0.00
2022-11-14T00:42:41.397Z,0.00
2022-11-14T00:43:43.728Z,0.00
2022-11-14T00:44:41.386Z,0.00
2022-11-14T00:45:41.371Z,0.00
2022-11-14T00:46:41.364Z,0.00
2022-11-14T00:47:41.354Z,0.00
2022-11-14T00:48:41.343Z,0.00
2022-11-14T00:49:41.337Z,0.00
2022-11-14T00:50:41.342Z,0.00
2022-11-14T00:51:41.439Z,0.00
2022-11-14T00:52:41.334Z,0.00
2022-11-14T00:53:41.312Z,0.00
2022-11-14T00:54:41.307Z,0.00
2022-11-14T00:55:41.297Z,0.00
2022-11-14T00:56:41.282Z,0.00
2022-11-14T00:57:41.286Z,0.00
2022-11-14T00:58:41.284Z,0.00
2022-11-14T00:59:41.309Z,0.00
2022-11-14T01:00:41.346Z,0.00
2022-11-14T01:01:41.245Z,0.00
2022-11-14T01:02:41.244Z,0.00
2022-11-14T01:03:41.232Z,0.00
2022-11-14T01:04:41.233Z,0.00
2022-11-14T01:05:42.286Z,0.00
2022-11-14T01:06:41.212Z,0.00
2022-11-14T01:07:41.348Z,0.00
2022-11-14T01:08:41.192Z,0.00
2022-11-14T01:09:41.195Z,0.00
2022-11-14T01:10:41.191Z,0.00
2022-11-14T01:11:41.864Z,0.00
2022-11-14T01:12:41.168Z,0.00
2022-11-14T01:13:41.169Z,0.00
2022-11-14T01:14:41.154Z,0.00
2022-11-14T01:15:41.145Z,0.00
2022-11-14T01:16:41.571Z,0.00
2022-11-14T01:17:41.137Z,0.00
2022-11-14T01:18:41.120Z,0.00
2022-11-14T01:19:41.138Z,0.00
2022-11-14T01:20:41.112Z,0.00
2022-11-14T01:21:41.091Z,0.00
2022-11-14T01:22:41.148Z,0.00
2022-11-14T01:23:41.193Z,0.00
2022-11-14T01:24:41.082Z,0.00
2022-11-14T01:25:41.091Z,0.00
2022-11-14T01:26:41.065Z,0.00
2022-11-14T01:27:41.089Z,0.00
2022-11-14T01:28:41.056Z,0.00
2022-11-14T01:29:41.043Z,0.00
2022-11-14T01:30:41.033Z,0.00
2022-11-14T01:31:41.031Z,0.00
2022-11-14T01:32:41.025Z,0.00
2022-11-14T01:33:41.006Z,0.00
2022-11-14T01:34:41.016Z,0.00
2022-11-14T01:35:40.985Z,0.00
2022-11-14T01:36:40.987Z,0.00
2022-11-14T01:37:41.009Z,0.00
2022-11-14T01:38:41.024Z,0.00
2022-11-14T01:39:41.078Z,0.00
2022-11-14T01:40:41.619Z,0.00
2022-11-14T01:41:40.944Z,0.00
2022-11-14T01:42:40.964Z,0.00
2022-11-14T01:43:40.932Z,0.00
2022-11-14T01:44:40.967Z,0.00
2022-11-14T01:45:40.999Z,0.00
2022-11-14T01:46:40.911Z,0.00
2022-11-14T01:47:40.902Z,0.00
2022-11-14T01:48:40.901Z,0.00
2022-11-14T01:49:40.910Z,0.00
2022-11-14T01:50:44.095Z,0.00
2022-11-14T01:51:40.880Z,0.00
2022-11-14T01:52:42.156Z,0.00
2022-11-14T01:53:40.862Z,0.00
2022-11-14T01:54:40.867Z,0.00
2022-11-14T01:55:40.961Z,0.00
2022-11-14T01:56:40.897Z,0.00
2022-11-14T01:57:40.843Z,0.00
2022-11-14T01:58:40.822Z,0.00
2022-11-14T01:59:40.820Z,0.00
2022-11-14T02:00:40.817Z,0.00
2022-11-14T02:01:40.949Z,0.00
2022-11-14T02:02:40.792Z,0.00
2022-11-14T02:03:40.805Z,0.00
2022-11-14T02:04:40.771Z,0.00
2022-11-14T02:05:42.285Z,0.00
2022-11-14T02:06:40.764Z,0.00
2022-11-14T02:07:40.770Z,0.00
2022-11-14T02:08:40.749Z,0.00
2022-11-14T02:09:40.748Z,0.00
2022-11-14T02:10:41.395Z,0.00
2022-11-14T02:11:40.850Z,0.00
2022-11-14T02:12:40.714Z,0.00
2022-11-14T02:13:40.709Z,0.00
2022-11-14T02:14:40.709Z,0.00
2022-11-14T02:15:40.727Z,0.00
2022-11-14T02:16:40.696Z,0.00
2022-11-14T02:17:40.688Z,0.00
2022-11-14T02:18:40.672Z,0.00
2022-11-14T02:19:40.667Z,0.00
2022-11-14T02:20:40.667Z,0.00
2022-11-14T02:21:40.678Z,0.00
2022-11-14T02:22:40.689Z,0.00
2022-11-14T02:23:40.646Z,0.00
2022-11-14T02:24:40.817Z,0.00
2022-11-14T02:25:40.630Z,0.00
2022-11-14T02:26:40.627Z,0.00
2022-11-14T02:27:40.729Z,0.00
2022-11-14T02:28:40.613Z,0.00
2022-11-14T02:29:40.617Z,0.00
2022-11-14T02:30:40.595Z,0.00
2022-11-14T02:31:40.611Z,0.00
2022-11-14T02:33:10.694Z,0.00
2022-11-14T02:33:41.578Z,0.00
2022-11-14T02:34:40.564Z,0.00
2022-11-14T02:35:40.573Z,0.00
2022-11-14T02:36:40.546Z,0.00
2022-11-14T02:37:40.551Z,0.00
2022-11-14T02:38:40.542Z,0.00
2022-11-14T02:39:40.552Z,0.00
2022-11-14T02:40:40.524Z,0.00
2022-11-14T02:41:40.519Z,0.00
2022-11-14T02:42:40.517Z,0.00
2022-11-14T02:43:40.621Z,0.00
2022-11-14T02:44:40.513Z,0.00
2022-11-14T02:45:40.522Z,0.00
2022-11-14T02:46:45.144Z,0.00
2022-11-14T02:47:40.482Z,0.00
2022-11-14T02:48:40.467Z,0.00
2022-11-14T02:49:40.461Z,0.00
2022-11-14T02:50:40.460Z,0.00
2022-11-14T02:51:40.459Z,0.00
2022-11-14T02:52:41.052Z,0.00
2022-11-14T02:53:40.429Z,0.00
2022-11-14T02:54:40.425Z,0.00
2022-11-14T02:55:40.412Z,0.00
2022-11-14T02:56:40.410Z,0.00
2022-11-14T02:57:40.431Z,0.00
2022-11-14T02:58:40.392Z,0.00
2022-11-14T02:59:40.531Z,0.00
2022-11-14T03:00:59.202Z,0.00
2022-11-14T03:01:41.431Z,0.00
2022-11-14T03:02:40.372Z,0.00
2022-11-14T03:03:40.370Z,0.00
2022-11-14T03:04:40.359Z,0.00
2022-11-14T03:05:40.362Z,0.00
2022-11-14T03:06:40.341Z,0.00
2022-11-14T03:07:40.327Z,0.00
2022-11-14T03:08:40.324Z,0.00
2022-11-14T03:09:40.318Z,0.00
2022-11-14T03:10:40.302Z,0.00
2022-11-14T03:11:40.303Z,0.00
2022-11-14T03:12:40.889Z,0.00
2022-11-14T03:13:40.378Z,0.00
2022-11-14T03:14:40.282Z,0.00
2022-11-14T03:15:40.389Z,0.00
2022-11-14T03:16:40.282Z,0.00
2022-11-14T03:17:40.282Z,0.00
2022-11-14T03:18:40.242Z,0.00
2022-11-14T03:19:40.252Z,0.00
2022-11-14T03:20:40.229Z,0.00
2022-11-14T03:21:40.227Z,0.00
2022-11-14T03:22:40.222Z,0.00
2022-11-14T03:23:40.219Z,0.00
2022-11-14T03:24:40.209Z,0.00
2022-11-14T03:25:40.211Z,0.00
2022-11-14T03:26:41.226Z,0.00
2022-11-14T03:27:40.185Z,0.00
2022-11-14T03:28:40.188Z,0.00
2022-11-14T03:29:40.178Z,0.00
2022-11-14T03:30:40.156Z,0.00
2022-11-14T03:31:40.285Z,0.00
2022-11-14T03:32:40.968Z,0.00
2022-11-14T03:33:40.138Z,0.00
2022-11-14T03:34:40.137Z,0.00
2022-11-14T03:35:40.129Z,0.00
2022-11-14T03:36:40.130Z,0.00
2022-11-14T03:37:41.313Z,0.00
2022-11-14T03:38:40.129Z,0.00
2022-11-14T03:39:40.105Z,0.00
2022-11-14T03:40:40.097Z,0.00
2022-11-14T03:41:40.128Z,0.00
2022-11-14T03:42:40.083Z,0.00
2022-11-14T03:43:40.077Z,0.00
2022-11-14T03:44:40.074Z,0.00
2022-11-14T03:45:40.060Z,0.00
2022-11-14T03:46:40.079Z,0.00
2022-11-14T03:47:41.430Z,0.00
2022-11-14T03:48:40.039Z,0.00
2022-11-14T03:49:40.031Z,0.00
2022-11-14T03:50:40.040Z,0.00
2022-11-14T03:51:40.010Z,0.00
2022-11-14T03:52:40.032Z,0.00
2022-11-14T03:53:40.000Z,0.00
2022-11-14T03:54:39.988Z,0.00
2022-11-14T03:55:39.995Z,0.00
2022-11-14T03:56:39.984Z,0.00
2022-11-14T03:57:39.968Z,0.00
2022-11-14T03:58:39.970Z,0.00
2022-11-14T03:59:39.957Z,0.00
2022-11-14T04:00:39.997Z,0.00
2022-11-14T04:01:39.982Z,0.00
2022-11-14T04:02:39.933Z,0.00
2022-11-14T04:03:40.067Z,0.00
2022-11-14T04:04:39.934Z,0.00
2022-11-14T04:05:39.912Z,0.00
2022-11-14T04:06:39.917Z,0.00
2022-11-14T04:07:39.910Z,0.00
2022-11-14T04:08:39.935Z,0.00
2022-11-14T04:09:41.122Z,0.00
2022-11-14T04:10:39.894Z,0.00
2022-11-14T04:11:39.898Z,0.00
2022-11-14T04:12:39.870Z,0.00
2022-11-14T04:13:39.868Z,0.00
2022-11-14T04:14:39.858Z,0.00
2022-11-14T04:15:41.379Z,0.00
2022-11-14T04:16:39.842Z,0.00
2022-11-14T04:17:40.202Z,0.00
2022-11-14T04:18:39.831Z,0.00
2022-11-14T04:19:39.960Z,0.00
2022-11-14T04:20:39.811Z,0.00
2022-11-14T04:21:39.807Z,0.00
2022-11-14T04:22:39.794Z,0.00
2022-11-14T04:23:39.793Z,0.00
2022-11-14T04:24:40.584Z,0.00
2022-11-14T04:25:39.790Z,0.00
2022-11-14T04:26:39.776Z,0.00
2022-11-14T04:27:39.773Z,0.00
2022-11-14T04:28:39.768Z,0.00
2022-11-14T04:29:39.745Z,0.00
2022-11-14T04:30:40.036Z,0.00
2022-11-14T04:31:39.737Z,0.00
2022-11-14T04:32:39.730Z,0.00
2022-11-14T04:33:39.727Z,0.00
2022-11-14T04:34:39.729Z,0.00
2022-11-14T04:35:40.403Z,0.00
2022-11-14T04:36:39.707Z,0.00
2022-11-14T04:37:39.702Z,0.00
2022-11-14T04:38:39.696Z,0.00
2022-11-14T04:39:39.682Z,0.00
2022-11-14T04:40:39.672Z,0.00
2022-11-14T04:41:39.676Z,0.00
2022-11-14T04:42:39.673Z,0.00
2022-11-14T04:43:39.660Z,0.00
2022-11-14T04:44:39.702Z,0.00
2022-11-14T04:45:39.653Z,0.00
2022-11-14T04:46:39.636Z,0.00
2022-11-14T04:47:39.630Z,0.00
2022-11-14T04:48:39.671Z,0.00
2022-11-14T04:49:39.706Z,0.00
2022-11-14T04:50:39.613Z,0.00
2022-11-14T04:51:39.718Z,0.00
2022-11-14T04:52:39.613Z,0.00
2022-11-14T04:53:39.590Z,0.00
2022-11-14T04:54:39.593Z,0.00
2022-11-14T04:55:39.727Z,0.00
2022-11-14T04:56:39.572Z,0.00
2022-11-14T04:57:39.555Z,0.00
2022-11-14T04:58:39.645Z,0.00
2022-11-14T04:59:39.553Z,0.00
2022-11-14T05:00:39.542Z,0.00
2022-11-14T05:01:39.603Z,0.00
2022-11-14T05:02:39.522Z,0.00
2022-11-14T05:03:39.518Z,0.00
2022-11-14T05:04:39.520Z,0.00
2022-11-14T05:05:42.267Z,0.00
2022-11-14T05:06:41.411Z,0.00
2022-11-14T05:07:39.509Z,0.00
2022-11-14T05:08:39.479Z,0.00
2022-11-14T05:09:39.996Z,0.00
2022-11-14T05:10:39.469Z,0.00
2022-11-14T05:11:39.461Z,0.00
2022-11-14T05:12:39.478Z,0.00
2022-11-14T05:13:39.451Z,0.00
2022-11-14T05:14:39.433Z,0.00
2022-11-14T05:15:39.507Z,0.00
2022-11-14T05:16:39.439Z,0.00
2022-11-14T05:17:39.415Z,0.00
2022-11-14T05:18:44.293Z,0.00
2022-11-14T05:19:40.393Z,0.00
2022-11-14T05:20:39.413Z,0.00
2022-11-14T05:21:39.556Z,0.00
2022-11-14T05:22:39.374Z,0.00
2022-11-14T05:23:39.417Z,0.00
2022-11-14T05:24:40.359Z,0.00
2022-11-14T05:25:39.349Z,0.00
2022-11-14T05:26:39.372Z,0.00
2022-11-14T05:27:39.342Z,0.00
2022-11-14T05:28:39.334Z,0.00
2022-11-14T05:29:39.496Z,0.00
2022-11-14T05:30:39.330Z,0.00
2022-11-14T05:31:39.965Z,0.00
2022-11-14T05:32:39.301Z,0.00
2022-11-14T05:33:39.309Z,0.00
2022-11-14T05:34:39.287Z,0.00
2022-11-14T05:35:39.285Z,0.00
2022-11-14T05:36:39.284Z,0.00
2022-11-14T05:37:39.267Z,0.00
2022-11-14T05:38:39.272Z,0.00
2022-11-14T05:39:39.284Z,0.00
2022-11-14T05:40:39.259Z,0.00
2022-11-14T05:41:39.244Z,0.00
2022-11-14T05:42:39.295Z,0.00
2022-11-14T05:43:39.232Z,0.00
2022-11-14T05:44:39.616Z,0.00
2022-11-14T05:45:39.240Z,0.00
2022-11-14T05:46:39.231Z,0.00
2022-11-14T05:47:39.216Z,0.00
2022-11-14T05:48:39.196Z,0.00
2022-11-14T05:49:39.183Z,0.00
2022-11-14T05:50:39.179Z,0.00
2022-11-14T05:51:39.165Z,0.00
2022-11-14T05:52:39.171Z,0.00
2022-11-14T05:53:39.193Z,0.00
2022-11-14T05:54:39.186Z,0.00
2022-11-14T05:55:39.182Z,0.00
2022-11-14T05:56:40.529Z,0.00
2022-11-14T05:57:39.130Z,0.00
2022-11-14T05:58:39.133Z,0.00
2022-11-14T05:59:39.122Z,0.00
2022-11-14T06:00:46.503Z,0.00
2022-11-14T06:01:41.600Z,0.00
2022-11-14T06:02:39.094Z,0.00
2022-11-14T06:03:39.102Z,0.00
2022-11-14T06:04:39.088Z,0.00
2022-11-14T06:05:39.076Z,0.00
2022-11-14T06:06:39.184Z,0.00
2022-11-14T06:07:39.124Z,0.00
2022-11-14T06:08:39.048Z,0.00
2022-11-14T06:09:39.055Z,0.00
2022-11-14T06:10:39.039Z,0.00
2022-11-14T06:11:39.069Z,0.00
2022-11-14T06:12:39.851Z,0.00
2022-11-14T06:13:39.013Z,0.00
2022-11-14T06:14:39.013Z,0.00
2022-11-14T06:15:39.531Z,0.00
2022-11-14T06:16:38.991Z,0.00
2022-11-14T06:17:38.994Z,0.00
2022-11-14T06:18:38.988Z,0.00
2022-11-14T06:19:40.550Z,0.00
2022-11-14T06:20:38.964Z,0.00
2022-11-14T06:21:38.967Z,0.00
2022-11-14T06:22:38.998Z,0.00
2022-11-14T06:23:38.957Z,5.62
2022-11-14T06:24:40.191Z,5.62
2022-11-14T06:25:38.942Z,5.62
2022-11-14T06:26:38.944Z,5.62
2022-11-14T06:27:38.945Z,5.62
2022-11-14T06:28:38.910Z,5.62
2022-11-14T06:29:39.955Z,5.62
2022-11-14T06:30:38.897Z,5.62
2022-11-14T06:31:38.907Z,11.25
2022-11-14T06:32:38.890Z,11.25
2022-11-14T06:33:38.878Z,11.25
2022-11-14T06:34:48.725Z,11.25
2022-11-14T06:35:38.888Z,11.25
2022-11-14T06:36:38.861Z,11.25
2022-11-14T06:37:38.866Z,16.88
2022-11-14T06:38:38.842Z,16.88
2022-11-14T06:39:38.842Z,16.88
2022-11-14T06:40:38.828Z,16.88
2022-11-14T06:41:38.847Z,16.88
2022-11-14T06:42:38.823Z,16.88
2022-11-14T06:43:38.834Z,22.50
2022-11-14T06:44:38.805Z,22.50
2022-11-14T06:45:38.795Z,28.12
2022-11-14T06:46:38.781Z,28.12
2022-11-14T06:47:38.781Z,28.12
2022-11-14T06:48:39.724Z,28.12
2022-11-14T06:49:40.621Z,33.75
2022-11-14T06:50:38.767Z,33.75
2022-11-14T06:51:38.758Z,33.75
2022-11-14T06:52:38.741Z,39.38
2022-11-14T06:53:38.747Z,39.38
2022-11-14T06:54:38.730Z,45.00
2022-11-14T06:55:38.721Z,50.62
2022-11-14T06:56:38.713Z,56.25
2022-11-14T06:57:38.709Z,61.88
2022-11-14T06:58:38.694Z,67.50
2022-11-14T06:59:40.714Z,67.50
2022-11-14T07:00:38.692Z,73.12
2022-11-14T07:01:38.695Z,73.12
2022-11-14T07:02:38.716Z,78.75
2022-11-14T07:03:39.325Z,84.38
2022-11-14T07:04:38.657Z,78.75
2022-11-14T07:05:38.648Z,84.38
2022-11-14T07:06:38.646Z,95.62
2022-11-14T07:07:38.648Z,101.25
2022-11-14T07:08:38.629Z,106.88
2022-11-14T07:09:41.592Z,106.88
2022-11-14T07:10:38.733Z,112.50
2022-11-14T07:11:38.603Z,129.38
2022-11-14T07:12:38.599Z,135.00
2022-11-14T07:13:38.590Z,140.62
2022-11-14T07:14:38.591Z,157.50
2022-11-14T07:15:38.607Z,163.12
2022-11-14T07:16:38.562Z,163.12
2022-11-14T07:17:38.571Z,185.62
2022-11-14T07:18:38.669Z,196.88
2022-11-14T07:19:38.689Z,202.50
2022-11-14T07:20:40.175Z,208.12
2022-11-14T07:21:38.544Z,213.75
2022-11-14T07:22:38.524Z,225.00
2022-11-14T07:23:40.069Z,230.62
2022-11-14T07:24:38.515Z,241.88
2022-11-14T07:25:38.501Z,241.88
2022-11-14T07:26:41.340Z,236.25
2022-11-14T07:27:38.500Z,213.75
2022-11-14T07:28:38.471Z,241.88
2022-11-14T07:29:42.603Z,253.12
2022-11-14T07:30:38.510Z,281.25
2022-11-14T07:31:38.480Z,298.12
2022-11-14T07:32:38.451Z,315.00
2022-11-14T07:33:38.445Z,320.62
2022-11-14T07:34:38.440Z,315.00
2022-11-14T07:35:38.433Z,320.62
2022-11-14T07:36:39.552Z,337.50
2022-11-14T07:37:38.418Z,360.00
2022-11-14T07:38:39.266Z,416.25
2022-11-14T07:39:38.408Z,438.75
2022-11-14T07:40:38.396Z,489.38
2022-11-14T07:41:38.418Z,511.88
2022-11-14T07:42:38.388Z,405.00
2022-11-14T07:43:38.373Z,371.25
2022-11-14T07:44:38.399Z,376.88
2022-11-14T07:45:38.359Z,455.62
2022-11-14T07:46:40.490Z,658.12
2022-11-14T07:47:38.351Z,759.38
2022-11-14T07:48:38.336Z,748.12
2022-11-14T07:49:38.340Z,781.88
2022-11-14T07:50:38.372Z,832.50
2022-11-14T07:51:38.317Z,652.50
2022-11-14T07:52:38.313Z,483.75
2022-11-14T07:53:38.309Z,506.25
2022-11-14T07:54:38.316Z,663.75
2022-11-14T07:55:38.290Z,871.88
2022-11-14T07:56:38.289Z,928.12
2022-11-14T07:57:42.868Z,911.25
2022-11-14T07:58:39.275Z,916.88
2022-11-14T07:59:38.270Z,928.12
2022-11-14T08:00:38.309Z,922.50
2022-11-14T08:01:38.317Z,933.75
2022-11-14T08:02:38.274Z,933.75
2022-11-14T08:03:43.974Z,916.88
2022-11-14T08:04:39.233Z,894.38
2022-11-14T08:05:38.233Z,815.62
2022-11-14T08:06:38.673Z,815.62
2022-11-14T08:07:38.371Z,708.75
2022-11-14T08:08:38.207Z,742.50
2022-11-14T08:09:38.207Z,658.12
2022-11-14T08:10:38.197Z,703.12
2022-11-14T08:11:38.396Z,770.62
2022-11-14T08:12:38.179Z,736.88
2022-11-14T08:13:38.200Z,843.75
2022-11-14T08:14:38.179Z,793.12
2022-11-14T08:15:38.166Z,658.12
2022-11-14T08:16:38.143Z,551.25
2022-11-14T08:17:38.500Z,573.75
2022-11-14T08:18:38.166Z,579.38
2022-11-14T08:19:38.129Z,585.00
2022-11-14T08:20:38.129Z,585.00
2022-11-14T08:21:38.121Z,573.75
2022-11-14T08:22:38.530Z,540.00
2022-11-14T08:23:38.125Z,545.62
2022-11-14T08:24:38.135Z,579.38
2022-11-14T08:25:38.090Z,624.38
2022-11-14T08:26:38.080Z,652.50
2022-11-14T08:27:38.087Z,646.88
2022-11-14T08:28:38.084Z,641.25
2022-11-14T08:29:38.071Z,641.25
2022-11-14T08:30:38.060Z,646.88
2022-11-14T08:31:38.066Z,630.00
2022-11-14T08:32:38.043Z,601.88
2022-11-14T08:33:38.041Z,562.50
2022-11-14T08:34:38.047Z,534.38
2022-11-14T08:35:38.033Z,540.00
2022-11-14T08:36:38.011Z,495.00
2022-11-14T08:37:38.023Z,511.88
2022-11-14T08:38:38.005Z,551.25
2022-11-14T08:39:38.834Z,545.62
2022-11-14T08:40:39.302Z,556.88
2022-11-14T08:41:37.998Z,579.38
2022-11-14T08:42:37.976Z,545.62
2022-11-14T08:43:38.027Z,551.25
2022-11-14T08:44:37.965Z,534.38
2022-11-14T08:45:38.822Z,506.25
2022-11-14T08:46:37.945Z,483.75
2022-11-14T08:47:37.954Z,506.25
2022-11-14T08:48:37.958Z,444.38
2022-11-14T08:49:37.936Z,438.75
2022-11-14T08:50:39.134Z,478.12
2022-11-14T08:51:37.925Z,528.75
2022-11-14T08:52:37.912Z,573.75
2022-11-14T08:53:37.902Z,601.88
2022-11-14T08:54:37.898Z,697.50
2022-11-14T08:55:39.034Z,652.50
2022-11-14T08:56:37.886Z,720.00
2022-11-14T08:57:37.905Z,804.38
2022-11-14T08:58:37.877Z,804.38
2022-11-14T08:59:38.729Z,798.75
2022-11-14T09:00:37.848Z,804.38
2022-11-14T09:01:38.069Z,821.25
2022-11-14T09:02:37.841Z,815.62
2022-11-14T09:03:38.070Z,826.88
2022-11-14T09:04:37.940Z,821.25
2022-11-14T09:05:37.818Z,804.38
2022-11-14T09:06:37.830Z,776.25
2022-11-14T09:07:39.803Z,776.25
2022-11-14T09:08:37.795Z,753.75
2022-11-14T09:09:37.799Z,708.75
2022-11-14T09:10:37.789Z,776.25
2022-11-14T09:11:37.781Z,815.62
2022-11-14T09:12:37.842Z,821.25
2022-11-14T09:13:37.762Z,826.88
2022-11-14T09:14:37.885Z,843.75
2022-11-14T09:15:37.758Z,843.75
2022-11-14T09:16:37.740Z,843.75
2022-11-14T09:17:37.735Z,838.12
2022-11-14T09:18:37.733Z,832.50
2022-11-14T09:19:37.715Z,832.50
2022-11-14T09:20:40.394Z,832.50
2022-11-14T09:21:38.869Z,832.50
2022-11-14T09:22:37.715Z,838.12
2022-11-14T09:23:37.692Z,849.38
2022-11-14T09:24:38.298Z,849.38
2022-11-14T09:25:37.676Z,843.75
2022-11-14T09:26:37.681Z,832.50
2022-11-14T09:27:37.655Z,860.62
2022-11-14T09:28:37.650Z,849.38
2022-11-14T09:29:37.969Z,843.75
2022-11-14T09:30:37.640Z,849.38
2022-11-14T09:31:37.663Z,843.75
2022-11-14T09:32:37.626Z,838.12
2022-11-14T09:33:37.620Z,838.12
2022-11-14T09:34:37.649Z,832.50
2022-11-14T09:35:37.598Z,838.12
2022-11-14T09:36:37.600Z,849.38
2022-11-14T09:37:37.605Z,838.12
2022-11-14T09:38:38.890Z,849.38
2022-11-14T09:39:37.580Z,849.38
2022-11-14T09:40:37.565Z,849.38
2022-11-14T09:41:38.006Z,849.38
2022-11-14T09:42:37.608Z,843.75
2022-11-14T09:43:37.540Z,849.38
2022-11-14T09:44:37.546Z,843.75
2022-11-14T09:45:37.532Z,855.00
2022-11-14T09:46:37.535Z,849.38
2022-11-14T09:47:37.507Z,849.38
2022-11-14T09:48:37.626Z,838.12
2022-11-14T09:49:37.497Z,832.50
2022-11-14T09:50:37.488Z,838.12
2022-11-14T09:51:37.489Z,843.75
2022-11-14T09:52:38.059Z,838.12
2022-11-14T09:53:37.462Z,838.12
2022-11-14T09:54:37.487Z,838.12
2022-11-14T09:55:37.707Z,832.50
2022-11-14T09:56:37.454Z,832.50
2022-11-14T09:57:38.569Z,838.12
2022-11-14T09:58:37.424Z,843.75
2022-11-14T09:59:37.420Z,843.75
2022-11-14T10:00:37.427Z,832.50
2022-11-14T10:01:38.324Z,843.75
2022-11-14T10:02:37.399Z,838.12
2022-11-14T10:03:37.408Z,838.12
2022-11-14T10:04:37.409Z,832.50
2022-11-14T10:05:37.398Z,832.50
2022-11-14T10:06:37.451Z,832.50
2022-11-14T10:07:37.452Z,821.25
2022-11-14T10:08:37.388Z,826.88
2022-11-14T10:09:37.357Z,821.25
2022-11-14T10:10:38.918Z,815.62
2022-11-14T10:11:37.589Z,815.62
2022-11-14T10:12:37.331Z,815.62
2022-11-14T10:13:37.352Z,815.62
2022-11-14T10:14:37.334Z,810.00
2022-11-14T10:15:37.323Z,815.62
2022-11-14T10:16:37.581Z,810.00
2022-11-14T10:17:37.305Z,810.00
2022-11-14T10:18:37.294Z,843.75
2022-11-14T10:19:42.426Z,843.75
2022-11-14T10:20:38.280Z,838.12
2022-11-14T10:21:37.271Z,838.12
2022-11-14T10:22:37.686Z,849.38
2022-11-14T10:23:37.259Z,843.75
2022-11-14T10:24:37.288Z,838.12
2022-11-14T10:25:43.686Z,849.38
2022-11-14T10:26:38.257Z,843.75
2022-11-14T10:27:37.223Z,838.12
2022-11-14T10:28:37.232Z,838.12
2022-11-14T10:29:37.215Z,832.50
2022-11-14T10:30:37.237Z,838.12
2022-11-14T10:31:37.202Z,838.12
2022-11-14T10:32:37.191Z,838.12
2022-11-14T10:33:37.203Z,843.75
2022-11-14T10:34:37.176Z,838.12
2022-11-14T10:35:37.194Z,838.12
2022-11-14T10:36:37.161Z,832.50
2022-11-14T10:37:37.991Z,832.50
2022-11-14T10:38:37.147Z,838.12
2022-11-14T10:39:37.143Z,838.12
2022-11-14T10:40:37.146Z,832.50
2022-11-14T10:41:56.318Z,832.50
2022-11-14T10:42:38.134Z,838.12
2022-11-14T10:43:37.142Z,838.12
2022-11-14T10:44:37.096Z,838.12
2022-11-14T10:45:37.088Z,838.12
2022-11-14T10:46:37.090Z,832.50
2022-11-14T10:47:37.081Z,838.12
2022-11-14T10:48:37.492Z,832.50
2022-11-14T10:49:37.076Z,832.50
2022-11-14T10:50:37.073Z,826.88
2022-11-14T10:51:37.066Z,832.50
2022-11-14T10:52:37.058Z,832.50
2022-11-14T10:53:37.057Z,832.50
2022-11-14T10:54:37.030Z,826.88
2022-11-14T10:55:57.764Z,826.88
2022-11-14T10:56:37.999Z,832.50
2022-11-14T10:57:37.001Z,832.50
2022-11-14T10:58:47.691Z,832.50
2022-11-14T10:59:38.000Z,832.50
2022-11-14T11:00:37.008Z,826.88
2022-11-14T11:01:37.061Z,821.25
2022-11-14T11:02:37.029Z,821.25
2022-11-14T11:03:37.024Z,832.50
2022-11-14T11:04:38.654Z,832.50
2022-11-14T11:05:36.949Z,832.50
2022-11-14T11:06:36.931Z,838.12
2022-11-14T11:07:37.045Z,832.50
2022-11-14T11:08:43.205Z,832.50
2022-11-14T11:09:43.749Z,826.88
2022-11-14T11:10:37.918Z,826.88
2022-11-14T11:11:36.901Z,826.88
2022-11-14T11:12:36.968Z,826.88
2022-11-14T11:13:36.907Z,826.88
2022-11-14T11:14:36.894Z,838.12
2022-11-14T11:15:37.372Z,832.50
2022-11-14T11:16:36.859Z,826.88
2022-11-14T11:17:42.808Z,826.88
2022-11-14T11:18:37.866Z,832.50
2022-11-14T11:19:36.840Z,826.88
2022-11-14T11:20:36.865Z,826.88
2022-11-14T11:21:38.377Z,826.88
2022-11-14T11:22:36.815Z,821.25
2022-11-14T11:23:36.876Z,826.88
2022-11-14T11:24:36.818Z,821.25
2022-11-14T11:25:36.851Z,826.88
2022-11-14T11:26:36.799Z,815.62
2022-11-14T11:27:36.782Z,815.62
2022-11-14T11:28:36.786Z,815.62
2022-11-14T11:29:36.778Z,821.25
2022-11-14T11:30:36.779Z,815.62
2022-11-14T11:31:36.788Z,815.62
2022-11-14T11:32:43.788Z,815.62
2022-11-14T11:33:36.765Z,804.38
2022-11-14T11:34:36.723Z,804.38
2022-11-14T11:35:36.728Z,787.50
2022-11-14T11:36:36.751Z,787.50
2022-11-14T11:37:36.705Z,776.25
2022-11-14T11:38:36.718Z,742.50
2022-11-14T11:39:36.710Z,720.00
2022-11-14T11:40:36.685Z,742.50
2022-11-14T11:43:23.681Z,680.62
2022-11-14T11:43:52.523Z,646.88
2022-11-14T11:44:37.726Z,585.00
2022-11-14T11:45:36.683Z,562.50
2022-11-14T11:46:36.766Z,556.88
2022-11-14T11:47:36.670Z,556.88
2022-11-14T11:48:36.664Z,540.00
2022-11-14T11:49:36.628Z,523.12
2022-11-14T11:50:36.677Z,534.38
2022-11-14T11:51:37.087Z,556.88
2022-11-14T11:52:36.649Z,585.00
2022-11-14T11:53:36.614Z,635.62
2022-11-14T11:54:37.862Z,680.62
2022-11-14T11:55:36.582Z,720.00
2022-11-14T11:56:36.604Z,753.75
2022-11-14T11:57:36.605Z,793.12
2022-11-14T11:58:36.680Z,815.62
2022-11-14T11:59:36.571Z,888.75
2022-11-14T12:00:36.581Z,956.25
2022-11-14T12:01:36.581Z,973.12
2022-11-14T12:02:36.738Z,984.38
2022-11-14T12:03:36.899Z,995.62
2022-11-14T12:04:36.541Z,995.62
2022-11-14T12:05:36.574Z,984.38
2022-11-14T12:06:36.488Z,990.00
2022-11-14T12:07:36.590Z,984.38
2022-11-14T12:08:37.307Z,984.38
2022-11-14T12:10:03.504Z,990.00
2022-11-14T12:10:37.474Z,984.38
2022-11-14T12:11:36.498Z,984.38
2022-11-14T12:12:36.467Z,978.75
2022-11-14T12:13:36.474Z,978.75
2022-11-14T12:14:36.499Z,978.75
2022-11-14T12:15:36.442Z,978.75
2022-11-14T12:16:36.433Z,961.88
2022-11-14T12:17:36.452Z,945.00
2022-11-14T12:18:36.439Z,933.75
2022-11-14T12:19:36.462Z,928.12
2022-11-14T12:20:36.408Z,888.75
2022-11-14T12:21:36.412Z,821.25
2022-11-14T12:22:36.370Z,748.12
2022-11-14T12:23:36.368Z,697.50
2022-11-14T12:24:36.404Z,663.75
2022-11-14T12:25:36.357Z,646.88
2022-11-14T12:26:37.330Z,641.25
2022-11-14T12:27:36.445Z,635.62
2022-11-14T12:28:36.334Z,635.62
2022-11-14T12:29:36.345Z,630.00
2022-11-14T12:30:36.361Z,624.38
2022-11-14T12:31:36.361Z,618.75
2022-11-14T12:32:37.019Z,613.12
2022-11-14T12:33:36.294Z,601.88
2022-11-14T12:34:36.521Z,601.88
2022-11-14T12:35:44.344Z,601.88
2022-11-14T12:36:38.070Z,596.25
2022-11-14T12:37:36.352Z,590.62
2022-11-14T12:38:36.260Z,590.62
2022-11-14T12:39:36.278Z,590.62
2022-11-14T12:40:36.248Z,590.62
2022-11-14T12:41:36.259Z,585.00
2022-11-14T12:42:36.245Z,573.75
2022-11-14T12:43:37.181Z,573.75
2022-11-14T12:44:37.070Z,568.12
2022-11-14T12:45:36.233Z,568.12
2022-11-14T12:46:36.205Z,562.50
2022-11-14T12:47:36.232Z,562.50
2022-11-14T12:48:36.194Z,556.88
2022-11-14T12:49:36.189Z,551.25
2022-11-14T12:50:36.396Z,551.25
2022-11-14T12:51:36.184Z,545.62
2022-11-14T12:52:36.162Z,545.62
2022-11-14T12:53:36.201Z,534.38
2022-11-14T12:54:36.164Z,528.75
2022-11-14T12:55:36.333Z,523.12
2022-11-14T12:56:36.146Z,517.50